Time;durP1;ratioP1;P1;durP2;ratioP2;P2;SDS_P1;SDS_P2;PMS_P1;PMS_P2;Temp;Humidity;BMP_temperature;BMP_pressure;BME280_temperature;BME280_humidity;BME280_pressure;Samples;Min_cycle;Max_cycle;Signal;HPM_P1;HPM_P2
2021/01/24 00:00:33;;;;;;;9.10;4.10;;;16.50;60.40;;;;;;5070175;28;20465;-62
2021/01/24 00:02:58;;;;;;;9.27;4.22;;;16.50;60.30;;;;;;5080164;28;20021;-60
2021/01/24 00:05:24;;;;;;;8.55;3.97;;;16.60;60.60;;;;;;5088029;28;20367;-62
2021/01/24 00:07:49;;;;;;;9.45;4.30;;;16.50;60.40;;;;;;5090223;28;20056;-59
2021/01/24 00:10:17;;;;;;;8.45;4.28;;;16.50;60.60;;;;;;5090023;28;20027;-60
2021/01/24 00:12:43;;;;;;;8.27;4.18;;;16.50;60.40;;;;;;5089879;28;20101;-60
2021/01/24 00:15:09;;;;;;;9.65;4.30;;;16.60;60.00;;;;;;5088749;28;20070;-59
2021/01/24 00:17:34;;;;;;;9.02;4.18;;;16.60;59.90;;;;;;5090110;28;20024;-60
2021/01/24 00:20:00;;;;;;;9.05;4.05;;;16.50;60.00;;;;;;5088456;28;20020;-61
2021/01/24 00:22:29;;;;;;;8.30;3.88;;;16.50;60.20;;;;;;5089758;28;20042;-60
2021/01/24 00:24:55;;;;;;;8.43;4.05;;;16.50;60.30;;;;;;5089828;28;20027;-61
2021/01/24 00:27:21;;;;;;;7.97;4.20;;;16.50;59.90;;;;;;5089669;28;20024;-61
2021/01/24 00:29:47;;;;;;;7.93;3.90;;;16.60;59.90;;;;;;5091218;28;20020;-60
2021/01/24 00:32:12;;;;;;;8.38;3.90;;;16.50;60.00;;;;;;5087033;28;20474;-61
2021/01/24 00:34:39;;;;;;;6.90;3.80;;;16.50;60.00;;;;;;5072143;28;20108;-61
2021/01/24 00:37:05;;;;;;;7.93;4.57;;;16.50;60.00;;;;;;5072568;28;20052;-62
2021/01/24 00:39:31;;;;;;;8.73;4.05;;;16.60;59.80;;;;;;5072875;28;20060;-61
2021/01/24 00:41:57;;;;;;;8.57;3.75;;;16.50;59.70;;;;;;5071081;28;20131;-62
2021/01/24 00:44:22;;;;;;;8.65;3.95;;;16.50;60.00;;;;;;5071581;28;20064;-60
2021/01/24 00:46:48;;;;;;;6.63;3.70;;;16.50;60.00;;;;;;5072556;28;20550;-61
2021/01/24 00:49:13;;;;;;;6.30;3.40;;;16.50;59.60;;;;;;5072313;28;20063;-61
2021/01/24 00:51:39;;;;;;;7.50;4.10;;;16.50;59.50;;;;;;5054610;28;20443;-60
2021/01/24 00:54:04;;;;;;;7.28;3.90;;;16.50;59.60;;;;;;5072576;28;20036;-61
2021/01/24 00:56:32;;;;;;;8.23;4.07;;;16.50;59.60;;;;;;5071650;28;20127;-59
2021/01/24 00:58:57;;;;;;;7.88;3.53;;;16.50;60.20;;;;;;5072856;28;20132;-59
2021/01/24 01:01:23;;;;;;;7.15;3.60;;;16.50;59.50;;;;;;5072396;28;20103;-59
2021/01/24 01:03:48;;;;;;;8.85;4.10;;;16.50;60.00;;;;;;5081575;28;20485;-61
2021/01/24 01:06:14;;;;;;;7.25;4.13;;;16.40;59.50;;;;;;5091454;28;20366;-59
2021/01/24 01:08:39;;;;;;;8.07;4.15;;;16.40;59.40;;;;;;5091526;28;20032;-60
2021/01/24 01:11:05;;;;;;;7.50;4.00;;;16.40;59.50;;;;;;5092651;28;20154;-63
2021/01/24 01:13:30;;;;;;;7.32;3.67;;;16.40;59.40;;;;;;5092735;28;20020;-61
2021/01/24 01:15:56;;;;;;;7.82;3.75;;;16.40;59.90;;;;;;5092742;28;20042;-61
2021/01/24 01:18:21;;;;;;;7.22;3.90;;;16.40;59.50;;;;;;5092645;28;20028;-61
2021/01/24 01:20:47;;;;;;;9.10;4.07;;;16.40;59.30;;;;;;5092454;28;20089;-60
2021/01/24 01:23:12;;;;;;;7.57;4.00;;;16.40;59.40;;;;;;5090997;28;20020;-63
2021/01/24 01:25:38;;;;;;;7.97;4.10;;;16.40;59.00;;;;;;5092029;28;20406;-60
2021/01/24 01:28:04;;;;;;;5.78;3.20;;;16.40;59.00;;;;;;5092575;28;20029;-61
2021/01/24 01:30:29;;;;;;;7.05;3.35;;;16.30;59.30;;;;;;5092306;28;20385;-63
2021/01/24 01:32:55;;;;;;;7.53;3.67;;;16.30;59.40;;;;;;5079250;28;20028;-61
2021/01/24 01:35:20;;;;;;;9.05;4.32;;;16.40;59.20;;;;;;5071800;28;20091;-59
2021/01/24 01:37:46;;;;;;;7.00;3.83;;;16.30;59.10;;;;;;5071873;28;20481;-59
2021/01/24 01:40:12;;;;;;;6.45;3.55;;;16.40;59.40;;;;;;5072187;28;20028;-62
2021/01/24 01:42:37;;;;;;;8.00;3.53;;;16.30;59.40;;;;;;5071766;28;20634;-59
2021/01/24 01:45:05;;;;;;;6.13;3.38;;;16.30;59.50;;;;;;5072044;28;20085;-60
2021/01/24 01:47:31;;;;;;;9.63;4.22;;;16.30;59.50;;;;;;5071851;28;20048;-60
2021/01/24 01:49:58;;;;;;;7.93;3.47;;;16.30;59.30;;;;;;5071613;28;20509;-61
2021/01/24 01:52:28;;;;;;;6.97;3.60;;;16.30;59.10;;;;;;5070248;28;20029;-59
2021/01/24 01:54:54;;;;;;;7.55;3.70;;;16.30;58.90;;;;;;5071660;28;20035;-58
2021/01/24 02:00:23;;;;;;;10.10;4.13;;;16.30;59.10;;;;;;5070848;28;20055;-60
2021/01/24 02:02:55;;;;;;;7.45;3.88;;;16.30;58.70;;;;;;5072300;28;20025;-60
2021/01/24 02:05:34;;;;;;;6.35;3.38;;;16.30;58.60;;;;;;5089828;28;20036;-65
2021/01/24 02:08:13;;;;;;;6.50;3.40;;;16.20;58.80;;;;;;5090432;28;20461;-60
2021/01/24 02:10:52;;;;;;;7.40;3.50;;;16.30;58.80;;;;;;5090608;28;20020;-61
2021/01/24 02:13:44;;;;;;;8.07;3.72;;;16.30;58.50;;;;;;5091287;28;20499;-60
2021/01/24 02:16:11;;;;;;;6.50;3.40;;;16.30;58.40;;;;;;5091546;28;20060;-60
2021/01/24 02:18:40;;;;;;;6.53;3.80;;;16.20;58.60;;;;;;5091243;28;20024;-62
2021/01/24 02:21:23;;;;;;;6.15;3.60;;;16.20;58.90;;;;;;5091025;28;20032;-61
2021/01/24 02:23:53;;;;;;;6.25;3.47;;;16.20;58.90;;;;;;5090120;28;20034;-61
2021/01/24 02:26:56;;;;;;;7.63;3.42;;;16.20;58.80;;;;;;5090832;28;20052;-59
2021/01/24 02:29:25;;;;;;;6.03;3.25;;;16.20;58.70;;;;;;5091335;28;20020;-59
2021/01/24 02:31:52;;;;;;;6.65;3.40;;;16.20;58.90;;;;;;5088402;28;20101;-60
2021/01/24 02:34:21;;;;;;;6.60;3.58;;;16.20;58.80;;;;;;5070747;28;20091;-60
2021/01/24 02:36:47;;;;;;;7.18;3.20;;;16.20;58.70;;;;;;5070883;28;20673;-60
2021/01/24 02:39:13;;;;;;;7.28;3.67;;;16.20;58.50;;;;;;5070880;28;20036;-61
2021/01/24 02:41:40;;;;;;;13.02;3.97;;;16.20;58.70;;;;;;5069715;28;20029;-60
2021/01/24 02:44:07;;;;;;;6.30;2.95;;;16.20;58.60;;;;;;5070775;28;20039;-60
2021/01/24 02:49:56;;;;;;;7.47;3.60;;;16.20;58.90;;;;;;5069726;28;20032;-60
2021/01/24 02:52:23;;;;;;;6.15;3.22;;;16.20;58.70;;;;;;5068716;28;20125;-60
2021/01/24 02:54:49;;;;;;;6.80;3.70;;;16.20;58.50;;;;;;5070660;28;20426;-62
2021/01/24 02:57:15;;;;;;;8.32;3.35;;;16.20;58.60;;;;;;5069361;28;20498;-61
2021/01/24 02:59:41;;;;;;;5.95;2.97;;;16.20;58.60;;;;;;5070622;28;20040;-60
2021/01/24 03:02:06;;;;;;;6.28;3.80;;;16.10;58.70;;;;;;5069070;28;20470;-64
2021/01/24 03:04:32;;;;;;;6.55;3.35;;;16.20;58.60;;;;;;5095051;28;20035;-60
2021/01/24 03:06:57;;;;;;;5.55;2.90;;;16.20;58.40;;;;;;5090717;28;20059;-63
2021/01/24 03:09:23;;;;;;;6.97;2.95;;;16.20;58.70;;;;;;5089503;28;20099;-61
2021/01/24 03:11:51;;;;;;;6.70;3.70;;;16.10;58.50;;;;;;5083322;28;20081;-62
2021/01/24 03:14:24;;;;;;;6.15;3.25;;;16.10;58.40;;;;;;5076591;28;20029;-60
2021/01/24 03:16:54;;;;;;;5.88;2.75;;;16.20;58.60;;;;;;5069005;28;20094;-61
2021/01/24 03:19:21;;;;;;;6.53;3.10;;;16.10;58.50;;;;;;5069934;28;20085;-64
2021/01/24 03:21:49;;;;;;;6.47;3.33;;;16.10;58.70;;;;;;5069920;28;20027;-61
2021/01/24 03:24:16;;;;;;;5.82;3.22;;;16.10;58.70;;;;;;5070144;28;20037;-60
2021/01/24 03:30:05;;;;;;;5.95;3.13;;;16.20;58.30;;;;;;5086954;28;20558;-62
2021/01/24 03:32:30;;;;;;;7.57;3.35;;;16.10;58.40;;;;;;5080408;28;20025;-60
2021/01/24 03:34:56;;;;;;;6.00;3.38;;;16.10;58.40;;;;;;5068417;28;20163;-61
2021/01/24 03:37:21;;;;;;;5.82;3.10;;;16.10;58.40;;;;;;5070238;28;20445;-62
2021/01/24 03:39:47;;;;;;;6.63;3.58;;;16.10;58.50;;;;;;5070206;28;20032;-60
2021/01/24 03:42:13;;;;;;;6.57;3.17;;;16.10;58.30;;;;;;5068597;28;20440;-60
2021/01/24 03:44:38;;;;;;;6.20;3.15;;;16.10;58.20;;;;;;5068281;28;20025;-63
2021/01/24 03:47:04;;;;;;;6.55;3.30;;;16.10;58.20;;;;;;5070063;28;20060;-60
2021/01/24 03:49:29;;;;;;;5.30;2.95;;;16.10;58.20;;;;;;5068971;28;20078;-60
2021/01/24 03:51:55;;;;;;;6.55;3.03;;;16.20;58.10;;;;;;5070204;28;20012;-61
2021/01/24 03:54:21;;;;;;;20.52;3.20;;;16.10;58.10;;;;;;5069915;28;20029;-62
2021/01/24 03:56:46;;;;;;;5.57;3.08;;;16.10;58.20;;;;;;5089071;28;20069;-60
2021/01/24 03:59:12;;;;;;;6.43;3.15;;;16.20;58.10;;;;;;5090290;28;20438;-63
2021/01/24 04:01:37;;;;;;;6.03;2.90;;;16.20;58.00;;;;;;5089955;28;20028;-60
2021/01/24 04:04:03;;;;;;;6.55;2.80;;;16.10;58.00;;;;;;5090421;28;20024;-60
2021/01/24 04:06:29;;;;;;;5.30;3.00;;;16.10;58.40;;;;;;5092755;28;20170;-61
2021/01/24 04:08:54;;;;;;;4.85;2.63;;;16.10;58.00;;;;;;5094108;28;20055;-63
2021/01/24 04:11:20;;;;;;;6.05;3.13;;;16.20;57.80;;;;;;5093803;28;20536;-60
2021/01/24 04:13:46;;;;;;;4.97;2.72;;;16.20;58.20;;;;;;5093994;28;20027;-61
2021/01/24 04:16:12;;;;;;;5.43;2.70;;;16.10;58.00;;;;;;5094035;28;20035;-61
2021/01/24 04:18:38;;;;;;;6.32;3.25;;;16.20;57.80;;;;;;5092714;28;20500;-61
2021/01/24 04:21:05;;;;;;;5.78;2.67;;;16.20;57.60;;;;;;5093325;28;20082;-60
2021/01/24 04:23:31;;;;;;;5.65;3.10;;;16.20;57.70;;;;;;5093770;28;20031;-61
2021/01/24 04:25:56;;;;;;;5.45;2.60;;;16.20;57.80;;;;;;5076791;28;20141;-60
2021/01/24 04:31:44;;;;;;;5.03;2.70;;;16.20;57.90;;;;;;5071616;28;20162;-61
2021/01/24 04:34:10;;;;;;;5.82;2.97;;;16.10;57.80;;;;;;5072045;28;20115;-61
2021/01/24 04:36:35;;;;;;;6.10;2.70;;;16.10;58.00;;;;;;5071910;28;20028;-62
2021/01/24 04:39:01;;;;;;;5.28;2.85;;;16.10;57.90;;;;;;5073367;28;20025;-65
2021/01/24 04:41:27;;;;;;;5.65;2.65;;;16.10;57.90;;;;;;5071602;28;20024;-61
2021/01/24 04:43:52;;;;;;;5.35;3.03;;;16.10;57.70;;;;;;5074817;28;20082;-61
2021/01/24 04:46:18;;;;;;;5.32;2.92;;;16.00;57.80;;;;;;5074819;28;20017;-61
2021/01/24 04:48:44;;;;;;;5.30;2.72;;;16.00;58.10;;;;;;5074998;28;20481;-63
2021/01/24 04:51:10;;;;;;;6.68;2.80;;;15.90;58.00;;;;;;5075034;28;20048;-62
2021/01/24 04:53:38;;;;;;;7.55;2.90;;;16.00;57.90;;;;;;5072712;28;20107;-62
2021/01/24 04:59:26;;;;;;;4.72;2.47;;;15.90;58.10;;;;;;5072047;28;20161;-60
2021/01/24 05:01:52;;;;;;;6.70;2.80;;;15.90;58.00;;;;;;5083681;28;20070;-63
2021/01/24 05:04:18;;;;;;;5.07;2.65;;;16.00;57.90;;;;;;5091515;28;20078;-61
2021/01/24 05:06:44;;;;;;;4.35;2.70;;;16.00;57.90;;;;;;5093000;28;20419;-61
2021/01/24 05:09:10;;;;;;;4.35;2.50;;;15.90;57.90;;;;;;5092940;28;20103;-63
2021/01/24 05:11:35;;;;;;;5.30;2.60;;;15.90;58.10;;;;;;5092406;28;20099;-64
2021/01/24 05:14:14;;;;;;;6.60;2.80;;;15.90;57.90;;;;;;5091635;28;20478;-60
2021/01/24 05:16:41;;;;;;;5.35;2.63;;;16.00;58.10;;;;;;5090924;28;20465;-62
2021/01/24 05:19:08;;;;;;;5.22;2.90;;;15.90;58.00;;;;;;5092816;28;20035;-61
2021/01/24 05:21:36;;;;;;;6.25;2.75;;;15.90;58.10;;;;;;5092465;28;20024;-63
2021/01/24 05:27:37;;;;;;;4.45;2.40;;;15.90;57.90;;;;;;5088225;28;20170;-59
2021/01/24 05:33:24;;;;;;;5.03;2.70;;;15.80;58.00;;;;;;5071630;28;20024;-60
2021/01/24 05:39:02;;;;;;;5.20;2.85;;;15.90;57.90;;;;;;5071633;28;20051;-60
2021/01/24 05:41:29;;;;;;;;;;;15.90;58.00;;;;;;5072225;28;20070;-61
2021/01/24 05:43:55;;;;;;;5.20;2.70;;;15.80;58.00;;;;;;5071982;28;19995;-60
2021/01/24 05:46:32;;;;;;;4.95;2.50;;;15.80;58.10;;;;;;5071766;28;20115;-65
2021/01/24 05:48:57;;;;;;;4.93;2.63;;;15.90;58.00;;;;;;5070607;28;20027;-60
2021/01/24 05:51:23;;;;;;;4.57;2.70;;;15.90;57.90;;;;;;5070280;28;20021;-62
2021/01/24 05:53:49;;;;;;;5.25;3.00;;;15.80;57.80;;;;;;5070609;28;20055;-63
2021/01/24 05:56:56;;;;;;;6.28;2.60;;;15.80;58.20;;;;;;5071737;28;20028;-63
2021/01/24 05:59:21;;;;;;;5.22;3.08;;;15.70;58.10;;;;;;5070364;28;20040;-60
2021/01/24 06:01:47;;;;;;;4.28;2.58;;;15.70;58.00;;;;;;5081579;28;20024;-60
2021/01/24 06:04:12;;;;;;;5.28;3.00;;;15.80;57.90;;;;;;5091730;28;20040;-60
2021/01/24 06:06:38;;;;;;;5.07;2.70;;;15.80;58.00;;;;;;5091772;28;20028;-60
2021/01/24 06:09:03;;;;;;;4.93;2.90;;;15.70;58.00;;;;;;5091817;28;20111;-62
2021/01/24 06:11:30;;;;;;;4.88;2.83;;;15.70;58.10;;;;;;5079762;28;20036;-62
2021/01/24 06:13:58;;;;;;;4.35;2.42;;;15.70;58.10;;;;;;5075875;28;20509;-59
2021/01/24 06:16:34;;;;;;;5.47;2.80;;;15.70;57.70;;;;;;5080100;28;20528;-62
2021/01/24 06:19:06;;;;;;;5.20;2.78;;;15.80;57.70;;;;;;5086161;28;20073;-62
2021/01/24 06:21:48;;;;;;;5.05;2.97;;;15.70;57.70;;;;;;5079827;28;20020;-63
2021/01/24 06:24:21;;;;;;;;;;;15.70;58.00;;;;;;5076983;28;20153;-60
2021/01/24 06:26:53;;;;;;;5.70;2.72;;;15.70;57.90;;;;;;5070504;28;19919;-61
2021/01/24 06:29:21;;;;;;;4.95;2.90;;;15.70;57.60;;;;;;5078729;28;20513;-60
2021/01/24 06:31:48;;;;;;;4.47;2.60;;;15.70;57.50;;;;;;5081826;28;20518;-61
2021/01/24 06:34:14;;;;;;;5.32;2.70;;;15.70;57.40;;;;;;5096209;28;20058;-60
2021/01/24 06:37:01;;;;;;;5.90;2.92;;;15.70;57.40;;;;;;5111410;28;20043;-62
2021/01/24 06:39:41;;;;;;;6.03;2.80;;;15.70;57.30;;;;;;5084742;28;20588;-60
2021/01/24 06:42:06;;;;;;;6.60;3.10;;;15.80;57.30;;;;;;5070125;28;20032;-61
2021/01/24 06:44:37;;;;;;;4.82;2.70;;;15.80;57.30;;;;;;5079179;28;20043;-59
2021/01/24 06:47:04;;;;;;;5.13;2.90;;;15.70;57.30;;;;;;5071291;28;20060;-60
2021/01/24 06:49:43;;;;;;;5.25;2.65;;;15.70;57.20;;;;;;5090963;28;20062;-59
2021/01/24 06:52:16;;;;;;;5.20;3.00;;;15.70;57.30;;;;;;5070598;28;20036;-60
2021/01/24 06:54:42;;;;;;;6.40;3.17;;;15.70;57.40;;;;;;5070703;28;20477;-59
2021/01/24 06:57:08;;;;;;;5.18;2.78;;;15.70;57.40;;;;;;5087817;28;20024;-65
2021/01/24 06:59:34;;;;;;;6.10;3.00;;;15.70;57.50;;;;;;5089158;28;20024;-62
2021/01/24 07:02:45;;;;;;;5.78;2.75;;;15.70;57.50;;;;;;5070631;28;20052;-61
2021/01/24 07:05:22;;;;;;;5.03;2.83;;;15.70;57.50;;;;;;5067563;28;20071;-60
2021/01/24 07:07:53;;;;;;;7.10;2.80;;;15.70;57.60;;;;;;5074639;28;20031;-59
2021/01/24 07:10:37;;;;;;;6.03;2.90;;;15.60;57.60;;;;;;5090674;28;20061;-59
2021/01/24 07:13:25;;;;;;;4.80;2.60;;;15.60;57.50;;;;;;5088939;28;20061;-61
2021/01/24 07:15:59;;;;;;;5.13;2.80;;;15.60;57.40;;;;;;5090065;28;20020;-60
2021/01/24 07:18:25;;;;;;;4.70;2.65;;;15.70;57.50;;;;;;5085025;28;20033;-59
2021/01/24 07:20:53;;;;;;;5.43;3.10;;;15.50;57.50;;;;;;5090651;28;20089;-63
2021/01/24 07:23:19;;;;;;;8.80;3.17;;;15.60;57.60;;;;;;5081500;28;20385;-60
2021/01/24 07:25:45;;;;;;;4.53;2.72;;;15.60;57.60;;;;;;5068689;28;20397;-61
2021/01/24 07:28:13;;;;;;;5.47;2.85;;;15.60;57.80;;;;;;5070574;28;20031;-60
2021/01/24 07:30:39;;;;;;;5.07;2.90;;;15.50;57.70;;;;;;5089168;28;20056;-64
2021/01/24 07:33:06;;;;;;;5.18;2.65;;;15.60;57.70;;;;;;5089010;28;20035;-60
2021/01/24 07:35:35;;;;;;;4.93;3.00;;;15.50;57.60;;;;;;5082283;28;20028;-60
2021/01/24 07:38:02;;;;;;;5.03;2.75;;;15.60;57.70;;;;;;5079958;28;20016;-61
2021/01/24 07:40:28;;;;;;;6.32;3.00;;;15.50;57.70;;;;;;5092255;28;20507;-61
2021/01/24 07:42:54;;;;;;;4.60;2.88;;;15.50;57.70;;;;;;5096054;28;20027;-61
2021/01/24 07:45:20;;;;;;;5.88;3.20;;;15.50;57.90;;;;;;5101356;28;20027;-60
2021/01/24 07:47:46;;;;;;;5.63;2.97;;;15.50;58.50;;;;;;5101608;28;20081;-60
2021/01/24 07:50:12;;;;;;;356.23;316.63;;;15.50;57.90;;;;;;5099083;28;20028;-60
2021/01/24 07:52:37;;;;;;;143.52;128.50;;;15.50;58.10;;;;;;5089866;28;20028;-61
2021/01/24 07:55:04;;;;;;;41.88;36.85;;;15.50;58.20;;;;;;5076860;28;20027;-63
2021/01/24 07:57:30;;;;;;;22.02;19.60;;;15.60;58.30;;;;;;5092069;28;20504;-61
2021/01/24 07:59:56;;;;;;;17.35;14.20;;;15.60;58.50;;;;;;5089366;28;20028;-60
2021/01/24 08:02:21;;;;;;;18.25;12.40;;;15.60;58.70;;;;;;5092018;28;20546;-60
2021/01/24 08:04:47;;;;;;;14.23;10.35;;;15.60;58.80;;;;;;5092859;28;20043;-65
2021/01/24 08:07:12;;;;;;;20.98;10.02;;;15.60;58.60;;;;;;5092603;28;20028;-63
2021/01/24 08:09:38;;;;;;;12.90;9.15;;;15.60;58.60;;;;;;5093817;28;20028;-63
2021/01/24 08:12:11;;;;;;;12.20;8.35;;;15.60;58.70;;;;;;5093925;28;20097;-60
2021/01/24 08:14:38;;;;;;;13.25;8.02;;;15.60;58.80;;;;;;5090079;28;20024;-60
2021/01/24 08:17:08;;;;;;;11.98;8.32;;;15.60;58.80;;;;;;5090903;28;20032;-61
2021/01/24 08:19:34;;;;;;;12.02;7.47;;;15.60;59.00;;;;;;5092512;28;20035;-60
2021/01/24 08:22:00;;;;;;;10.30;7.05;;;15.60;58.90;;;;;;5092357;28;20111;-60
2021/01/24 08:24:26;;;;;;;8.35;6.43;;;15.70;59.00;;;;;;5093632;28;20020;-63
2021/01/24 08:26:52;;;;;;;9.60;7.05;;;15.70;58.80;;;;;;5092171;28;20424;-61
2021/01/24 08:29:18;;;;;;;9.35;6.43;;;15.70;58.80;;;;;;5084732;28;20024;-60
2021/01/24 08:31:45;;;;;;;11.15;6.25;;;15.80;58.70;;;;;;5089817;28;20035;-61
2021/01/24 08:34:12;;;;;;;10.30;7.15;;;15.90;58.60;;;;;;5073447;28;20021;-63
2021/01/24 08:36:38;;;;;;;11.23;5.80;;;15.90;58.50;;;;;;5081216;28;20020;-61
2021/01/24 08:39:05;;;;;;;9.38;5.93;;;16.00;58.50;;;;;;5092098;28;20065;-60
2021/01/24 08:41:34;;;;;;;9.38;5.63;;;15.90;58.80;;;;;;5080724;28;20035;-59
2021/01/24 08:44:15;;;;;;;13.55;6.13;;;16.00;58.90;;;;;;5066981;28;20658;-63
2021/01/24 08:46:47;;;;;;;11.23;6.95;;;16.20;58.60;;;;;;5081012;28;20046;-62
2021/01/24 08:49:24;;;;;;;10.07;6.70;;;16.30;58.60;;;;;;5080758;28;20085;-59
2021/01/24 08:51:52;;;;;;;8.50;5.88;;;16.30;58.50;;;;;;5095245;28;20059;-59
2021/01/24 08:54:32;;;;;;;9.60;5.97;;;16.50;58.50;;;;;;5100325;28;20032;-66
2021/01/24 08:57:11;;;;;;;9.07;5.47;;;16.50;58.50;;;;;;5089657;28;20055;-64
2021/01/24 08:59:38;;;;;;;7.65;5.38;;;16.60;58.30;;;;;;5088032;28;20039;-61
2021/01/24 09:02:05;;;;;;;9.45;5.47;;;16.60;58.30;;;;;;5107362;28;20039;-60
2021/01/24 09:04:33;;;;;;;10.15;5.10;;;16.60;58.30;;;;;;5105726;28;20042;-62
2021/01/24 09:07:17;;;;;;;8.48;4.82;;;16.70;58.30;;;;;;5087839;28;20892;-67
2021/01/24 09:09:45;;;;;;;7.85;4.82;;;16.70;58.30;;;;;;5084551;28;20396;-62
2021/01/24 09:12:13;;;;;;;9.77;5.03;;;16.70;58.30;;;;;;5076800;28;20024;-65
2021/01/24 09:14:39;;;;;;;8.57;4.22;;;16.90;58.60;;;;;;5084159;28;20030;-61
2021/01/24 09:17:16;;;;;;;14.88;6.07;;;16.70;58.50;;;;;;5069153;28;20032;-63
2021/01/24 09:19:43;;;;;;;10.90;5.22;;;16.90;59.00;;;;;;5080433;28;20062;-59
2021/01/24 09:22:10;;;;;;;8.40;4.20;;;16.80;59.10;;;;;;5085198;28;20035;-62
2021/01/24 09:24:37;;;;;;;9.13;4.32;;;16.80;59.10;;;;;;5070836;28;20111;-61
2021/01/24 09:27:05;;;;;;;7.82;3.97;;;16.80;59.10;;;;;;5085372;28;20028;-61
2021/01/24 09:29:31;;;;;;;7.45;3.92;;;16.80;59.10;;;;;;5084789;28;20554;-63
2021/01/24 09:31:56;;;;;;;8.23;4.13;;;16.90;59.10;;;;;;5084767;28;20153;-61
2021/01/24 09:34:22;;;;;;;7.65;3.75;;;16.90;59.10;;;;;;5084528;28;20131;-59
2021/01/24 09:36:47;;;;;;;7.28;3.65;;;16.90;59.00;;;;;;5105885;28;20328;-60
2021/01/24 09:39:13;;;;;;;7.25;3.90;;;17.00;59.00;;;;;;5086062;28;20637;-61
2021/01/24 09:41:38;;;;;;;9.10;4.25;;;17.00;59.00;;;;;;5085451;28;20031;-59
2021/01/24 09:44:05;;;;;;;7.25;3.65;;;16.90;58.80;;;;;;5084521;28;20592;-64
2021/01/24 09:46:31;;;;;;;6.95;3.70;;;17.00;59.10;;;;;;5085865;28;20032;-60
2021/01/24 09:48:57;;;;;;;6.10;3.53;;;17.00;59.00;;;;;;5084277;28;20084;-63
2021/01/24 09:51:23;;;;;;;7.72;3.67;;;17.00;58.90;;;;;;5084422;28;20032;-63
2021/01/24 09:53:50;;;;;;;8.55;3.67;;;17.00;58.90;;;;;;5084363;28;20024;-63
2021/01/24 09:56:16;;;;;;;7.85;3.60;;;16.90;58.80;;;;;;5084024;28;20077;-59
2021/01/24 09:58:41;;;;;;;7.25;3.50;;;17.00;58.80;;;;;;5083946;28;20024;-62
2021/01/24 10:01:07;;;;;;;7.20;4.10;;;17.00;58.80;;;;;;5085284;28;20099;-63
2021/01/24 10:03:33;;;;;;;6.50;3.90;;;17.00;58.80;;;;;;5083907;28;20028;-62
2021/01/24 10:05:58;;;;;;;6.47;3.42;;;17.10;58.90;;;;;;5084791;28;20043;-60
2021/01/24 10:08:24;;;;;;;7.20;4.10;;;17.30;58.80;;;;;;5084829;28;20016;-63
2021/01/24 10:10:50;;;;;;;8.05;3.78;;;17.30;58.80;;;;;;5085002;28;20384;-62
2021/01/24 10:13:15;;;;;;;8.07;3.55;;;17.30;58.70;;;;;;5104628;28;20023;-62
2021/01/24 10:15:41;;;;;;;8.32;3.67;;;17.30;58.50;;;;;;5105755;28;20085;-60
2021/01/24 10:18:07;;;;;;;5.63;3.45;;;17.30;58.40;;;;;;5104533;28;20365;-61
2021/01/24 10:20:33;;;;;;;8.55;3.80;;;17.30;58.20;;;;;;5104614;28;20019;-60
2021/01/24 10:22:59;;;;;;;7.13;3.72;;;17.30;58.20;;;;;;5105526;28;20031;-63
2021/01/24 10:25:25;;;;;;;6.55;3.65;;;17.30;58.60;;;;;;5086730;27;20028;-61
2021/01/24 10:27:50;;;;;;;7.55;3.67;;;17.30;58.90;;;;;;5063967;28;20241;-62
2021/01/24 10:30:17;;;;;;;6.32;3.58;;;17.30;58.30;;;;;;5065466;28;20036;-62
2021/01/24 10:32:42;;;;;;;7.07;4.07;;;17.30;58.60;;;;;;5065176;28;20048;-60
2021/01/24 10:35:08;;;;;;;8.73;4.18;;;17.30;58.90;;;;;;5065284;28;20082;-61
2021/01/24 10:37:34;;;;;;;8.80;6.20;;;17.30;59.20;;;;;;5063469;28;20549;-63
2021/01/24 10:40:00;;;;;;;9.80;5.53;;;17.40;59.70;;;;;;5063277;28;20116;-62
2021/01/24 10:42:26;;;;;;;7.97;4.90;;;17.40;60.20;;;;;;5062931;28;20583;-63
2021/01/24 10:44:51;;;;;;;12.25;5.80;;;17.40;60.00;;;;;;5065012;28;20044;-60
2021/01/24 10:47:17;;;;;;;13.38;6.80;;;17.40;59.80;;;;;;5065029;28;20050;-62
2021/01/24 10:49:43;;;;;;;10.10;5.45;;;17.40;59.80;;;;;;5065110;28;20537;-60
2021/01/24 10:52:08;;;;;;;15.05;5.43;;;17.50;59.60;;;;;;5064639;28;20107;-61
2021/01/24 10:54:37;;;;;;;8.93;4.82;;;17.50;59.90;;;;;;5068124;28;20062;-61
2021/01/24 10:57:03;;;;;;;7.78;4.80;;;17.50;59.60;;;;;;5091617;28;20039;-62
2021/01/24 10:59:29;;;;;;;13.23;4.70;;;17.50;59.70;;;;;;5084673;28;20106;-62
2021/01/24 11:01:55;;;;;;;8.90;4.32;;;17.50;59.80;;;;;;5084610;28;20132;-63
2021/01/24 11:04:20;;;;;;;10.57;4.25;;;17.50;60.10;;;;;;5084988;28;20036;-61
2021/01/24 11:06:47;;;;;;;9.45;4.65;;;17.50;60.00;;;;;;5084835;28;20552;-63
2021/01/24 11:09:12;;;;;;;11.55;4.47;;;17.60;60.10;;;;;;5083417;28;20028;-60
2021/01/24 11:11:38;;;;;;;10.95;4.80;;;17.50;60.10;;;;;;5083011;28;20028;-61
2021/01/24 11:14:04;;;;;;;8.00;4.60;;;17.50;60.30;;;;;;5084288;28;20038;-61
2021/01/24 11:16:29;;;;;;;6.75;4.05;;;17.50;59.90;;;;;;5084511;28;20081;-64
2021/01/24 11:18:55;;;;;;;10.80;4.75;;;17.50;59.80;;;;;;5083357;28;20473;-63
2021/01/24 11:21:20;;;;;;;18.77;10.90;;;17.50;60.10;;;;;;5083569;28;20036;-62
2021/01/24 11:23:46;;;;;;;16.40;6.88;;;17.50;59.70;;;;;;5074233;28;20511;-63
2021/01/24 11:26:11;;;;;;;16.23;5.75;;;17.40;59.80;;;;;;5080196;28;20032;-63
2021/01/24 11:28:37;;;;;;;20.05;6.22;;;17.40;59.70;;;;;;5083939;28;20505;-64
2021/01/24 11:31:02;;;;;;;23.08;6.28;;;17.40;60.00;;;;;;5102125;28;20098;-62
2021/01/24 11:33:28;;;;;;;17.48;5.20;;;17.40;60.30;;;;;;5086889;28;20033;-63
2021/01/24 11:35:53;;;;;;;12.40;5.15;;;17.40;61.00;;;;;;5078164;28;20021;-62
2021/01/24 11:38:19;;;;;;;13.35;4.97;;;17.30;61.80;;;;;;5076283;28;20027;-63
2021/01/24 11:40:44;;;;;;;10.75;4.72;;;17.40;61.20;;;;;;5062862;28;20123;-62
2021/01/24 11:43:10;;;;;;;11.05;4.15;;;17.40;61.50;;;;;;5061012;28;20028;-62
2021/01/24 11:45:35;;;;;;;9.93;4.45;;;17.40;61.50;;;;;;5060832;28;20060;-63
2021/01/24 11:48:02;;;;;;;12.45;5.00;;;17.50;61.00;;;;;;5063720;28;20020;-63
2021/01/24 11:50:28;;;;;;;11.07;5.10;;;17.50;60.60;;;;;;5066424;28;20067;-62
2021/01/24 11:52:53;;;;;;;12.48;5.85;;;17.50;59.70;;;;;;5083305;28;20044;-63
2021/01/24 11:55:20;;;;;;;11.30;4.75;;;17.50;59.50;;;;;;5094597;28;20115;-64
2021/01/24 11:57:45;;;;;;;12.13;5.03;;;17.50;59.90;;;;;;5088745;28;20031;-61
2021/01/24 12:00:11;;;;;;;12.07;4.93;;;17.60;59.50;;;;;;5079063;28;20039;-62
2021/01/24 12:02:37;;;;;;;8.07;4.68;;;17.50;59.40;;;;;;5077663;28;20028;-63
2021/01/24 12:05:03;;;;;;;12.57;4.45;;;17.60;59.40;;;;;;5064334;28;20121;-62
2021/01/24 12:07:28;;;;;;;12.82;5.05;;;17.60;59.90;;;;;;5069168;28;20480;-62
2021/01/24 12:09:54;;;;;;;12.50;4.82;;;17.50;61.00;;;;;;5095286;28;20020;-62
2021/01/24 12:12:19;;;;;;;16.58;5.35;;;17.50;62.20;;;;;;5082679;28;20020;-63
2021/01/24 12:14:45;;;;;;;14.75;5.40;;;17.40;63.20;;;;;;5080810;28;20509;-62
2021/01/24 12:17:11;;;;;;;12.63;4.63;;;17.50;63.40;;;;;;5081668;28;20053;-67
2021/01/24 12:19:36;;;;;;;14.65;5.40;;;17.50;63.20;;;;;;5082622;28;20024;-62
2021/01/24 12:22:02;;;;;;;15.35;5.25;;;17.50;62.30;;;;;;5082197;28;20440;-63
2021/01/24 12:24:28;;;;;;;17.85;5.72;;;17.50;63.00;;;;;;5082898;28;20129;-64
2021/01/24 12:26:53;;;;;;;18.45;6.35;;;17.50;63.70;;;;;;5066166;28;20054;-63
2021/01/24 12:29:19;;;;;;;17.45;6.00;;;17.40;63.70;;;;;;5067277;28;20069;-62
2021/01/24 12:31:44;;;;;;;14.43;6.07;;;17.40;62.60;;;;;;5080655;28;20024;-61
2021/01/24 12:34:10;;;;;;;13.07;6.05;;;17.40;62.50;;;;;;5087314;28;20536;-64
2021/01/24 12:36:36;;;;;;;12.30;6.25;;;17.50;61.80;;;;;;5087659;28;20072;-63
2021/01/24 12:39:02;;;;;;;12.15;6.72;;;17.50;61.40;;;;;;5085798;28;20545;-62
2021/01/24 12:41:28;;;;;;;18.90;6.82;;;17.50;60.80;;;;;;5085475;28;20084;-62
2021/01/24 12:43:53;;;;;;;11.93;6.40;;;17.50;60.80;;;;;;5085777;28;20494;-63
2021/01/24 12:46:19;;;;;;;11.57;6.00;;;17.40;59.80;;;;;;5098847;28;20031;-64
2021/01/24 12:48:44;;;;;;;14.32;6.20;;;17.40;60.10;;;;;;5107913;28;20023;-62
2021/01/24 12:51:10;;;;;;;16.08;6.57;;;17.40;60.40;;;;;;5098675;28;20729;-62
2021/01/24 12:53:35;;;;;;;14.23;6.97;;;17.40;60.70;;;;;;5086915;28;20027;-62
2021/01/24 12:56:01;;;;;;;15.02;6.68;;;17.40;58.90;;;;;;5086932;28;20107;-64
2021/01/24 12:58:27;;;;;;;13.80;6.35;;;17.50;59.40;;;;;;5080690;28;20055;-62
2021/01/24 13:00:52;;;;;;;9.45;5.30;;;17.50;59.90;;;;;;5076204;28;20024;-62
2021/01/24 13:03:18;;;;;;;10.70;5.28;;;17.50;60.20;;;;;;5075691;28;20038;-62
2021/01/24 13:05:44;;;;;;;11.60;5.00;;;17.50;61.00;;;;;;5092699;28;20036;-62
2021/01/24 13:08:09;;;;;;;8.48;4.68;;;17.50;61.50;;;;;;5107848;28;20026;-62
2021/01/24 13:10:35;;;;;;;10.43;4.72;;;17.50;61.60;;;;;;5102872;28;20030;-61
2021/01/24 13:13:00;;;;;;;10.82;4.70;;;17.40;61.60;;;;;;5085119;28;20021;-62